sensor_id;sensor_type;location;lat;lon;timestamp;temperature;humidity
50570;DHT22;36525;49.398;7.614;2024-03-02T00:00:49;4.90;99.90
50570;DHT22;36525;49.398;7.614;2024-03-02T00:03:16;4.90;99.90
50570;DHT22;36525;49.398;7.614;2024-03-02T00:05:44;4.90;99.90
50570;DHT22;36525;49.398;7.614;2024-03-02T00:08:14;4.90;99.90
50570;DHT22;36525;49.398;7.614;2024-03-02T00:10:52;5.00;99.90
50570;DHT22;36525;49.398;7.614;2024-03-02T00:13:23;5.00;99.90
50570;DHT22;36525;49.398;7.614;2024-03-02T00:15:54;4.90;99.90
50570;DHT22;36525;49.398;7.614;2024-03-02T00:18:34;5.00;99.90
50570;DHT22;36525;49.398;7.614;2024-03-02T00:21:02;5.00;99.90
50570;DHT22;36525;49.398;7.614;2024-03-02T00:23:30;5.00;99.90
50570;DHT22;36525;49.398;7.614;2024-03-02T00:25:58;5.00;99.90
50570;DHT22;36525;49.398;7.614;2024-03-02T00:28:33;4.90;99.90
50570;DHT22;36525;49.398;7.614;2024-03-02T00:31:02;5.00;99.90
50570;DHT22;36525;49.398;7.614;2024-03-02T00:33:44;5.00;99.90
50570;DHT22;36525;49.398;7.614;2024-03-02T00:36:13;5.10;99.90
50570;DHT22;36525;49.398;7.614;2024-03-02T00:38:50;5.10;99.90
50570;DHT22;36525;49.398;7.614;2024-03-02T00:44:02;5.20;99.90
50570;DHT22;36525;49.398;7.614;2024-03-02T00:46:33;5.10;99.90
50570;DHT22;36525;49.398;7.614;2024-03-02T00:49:04;5.20;99.90
50570;DHT22;36525;49.398;7.614;2024-03-02T00:51:33;5.20;99.90
50570;DHT22;36525;49.398;7.614;2024-03-02T00:54:03;5.10;99.90
50570;DHT22;36525;49.398;7.614;2024-03-02T00:56:31;5.00;99.90
50570;DHT22;36525;49.398;7.614;2024-03-02T00:58:59;5.00;99.90
50570;DHT22;36525;49.398;7.614;2024-03-02T01:01:25;4.90;99.90
50570;DHT22;36525;49.398;7.614;2024-03-02T01:03:52;4.90;99.90
50570;DHT22;36525;49.398;7.614;2024-03-02T01:06:20;4.90;99.90
50570;DHT22;36525;49.398;7.614;2024-03-02T01:08:47;4.90;99.90
50570;DHT22;36525;49.398;7.614;2024-03-02T01:11:17;5.00;99.90
50570;DHT22;36525;49.398;7.614;2024-03-02T01:13:45;4.90;99.90
50570;DHT22;36525;49.398;7.614;2024-03-02T01:16:13;5.00;99.90
50570;DHT22;36525;49.398;7.614;2024-03-02T01:18:40;5.00;99.90
50570;DHT22;36525;49.398;7.614;2024-03-02T01:21:07;5.00;99.90
50570;DHT22;36525;49.398;7.614;2024-03-02T01:23:34;5.00;99.90
50570;DHT22;36525;49.398;7.614;2024-03-02T01:26:01;5.00;99.90
50570;DHT22;36525;49.398;7.614;2024-03-02T01:28:27;5.00;99.90
50570;DHT22;36525;49.398;7.614;2024-03-02T01:30:54;4.90;99.90
50570;DHT22;36525;49.398;7.614;2024-03-02T01:33:21;4.90;99.90
50570;DHT22;36525;49.398;7.614;2024-03-02T01:35:48;4.90;99.90
50570;DHT22;36525;49.398;7.614;2024-03-02T01:38:15;4.90;99.90
50570;DHT22;36525;49.398;7.614;2024-03-02T01:40:41;4.90;99.90
50570;DHT22;36525;49.398;7.614;2024-03-02T01:43:08;4.90;99.90
50570;DHT22;36525;49.398;7.614;2024-03-02T01:45:35;4.90;99.90
50570;DHT22;36525;49.398;7.614;2024-03-02T01:48:04;5.00;99.90
50570;DHT22;36525;49.398;7.614;2024-03-02T01:50:32;4.90;99.90
50570;DHT22;36525;49.398;7.614;2024-03-02T01:52:59;5.00;99.90
50570;DHT22;36525;49.398;7.614;2024-03-02T01:55:26;5.10;99.90
50570;DHT22;36525;49.398;7.614;2024-03-02T01:57:55;5.10;99.90
50570;DHT22;36525;49.398;7.614;2024-03-02T02:00:22;5.10;99.90
50570;DHT22;36525;49.398;7.614;2024-03-02T02:02:51;5.00;99.90
50570;DHT22;36525;49.398;7.614;2024-03-02T02:05:18;5.10;99.90
50570;DHT22;36525;49.398;7.614;2024-03-02T02:07:45;5.10;99.90
50570;DHT22;36525;49.398;7.614;2024-03-02T02:10:12;5.10;99.90
50570;DHT22;36525;49.398;7.614;2024-03-02T02:12:39;5.10;99.90
50570;DHT22;36525;49.398;7.614;2024-03-02T02:17:53;5.20;99.90
50570;DHT22;36525;49.398;7.614;2024-03-02T02:20:21;5.20;99.90
50570;DHT22;36525;49.398;7.614;2024-03-02T02:22:54;5.20;99.90
50570;DHT22;36525;49.398;7.614;2024-03-02T02:25:21;5.30;99.90
50570;DHT22;36525;49.398;7.614;2024-03-02T02:27:49;5.20;99.90
50570;DHT22;36525;49.398;7.614;2024-03-02T02:30:23;5.20;99.90
50570;DHT22;36525;49.398;7.614;2024-03-02T02:32:52;5.20;99.90
50570;DHT22;36525;49.398;7.614;2024-03-02T02:35:19;5.20;99.90
50570;DHT22;36525;49.398;7.614;2024-03-02T02:37:46;5.20;99.90
50570;DHT22;36525;49.398;7.614;2024-03-02T02:40:13;5.20;99.90
50570;DHT22;36525;49.398;7.614;2024-03-02T02:42:40;5.30;99.90
50570;DHT22;36525;49.398;7.614;2024-03-02T02:45:07;5.40;99.90
50570;DHT22;36525;49.398;7.614;2024-03-02T02:47:34;5.30;99.90
50570;DHT22;36525;49.398;7.614;2024-03-02T02:50:06;5.30;99.90
50570;DHT22;36525;49.398;7.614;2024-03-02T02:52:34;5.40;99.90
50570;DHT22;36525;49.398;7.614;2024-03-02T02:55:03;5.40;99.90
50570;DHT22;36525;49.398;7.614;2024-03-02T02:57:31;5.40;99.90
50570;DHT22;36525;49.398;7.614;2024-03-02T03:00:05;5.40;99.90
50570;DHT22;36525;49.398;7.614;2024-03-02T03:02:37;5.50;99.90
50570;DHT22;36525;49.398;7.614;2024-03-02T03:05:08;5.50;99.90
50570;DHT22;36525;49.398;7.614;2024-03-02T03:07:36;5.40;99.90
50570;DHT22;36525;49.398;7.614;2024-03-02T03:10:04;5.40;99.90
50570;DHT22;36525;49.398;7.614;2024-03-02T03:12:32;5.30;99.90
50570;DHT22;36525;49.398;7.614;2024-03-02T03:14:59;5.30;99.90
50570;DHT22;36525;49.398;7.614;2024-03-02T03:17:26;5.30;99.90
50570;DHT22;36525;49.398;7.614;2024-03-02T03:19:53;5.30;99.90
50570;DHT22;36525;49.398;7.614;2024-03-02T03:22:21;5.30;99.90
50570;DHT22;36525;49.398;7.614;2024-03-02T03:24:48;5.30;99.90
50570;DHT22;36525;49.398;7.614;2024-03-02T03:27:15;5.20;99.90
50570;DHT22;36525;49.398;7.614;2024-03-02T03:29:41;5.20;99.90
50570;DHT22;36525;49.398;7.614;2024-03-02T03:32:08;5.10;99.90
50570;DHT22;36525;49.398;7.614;2024-03-02T03:34:35;5.20;99.90
50570;DHT22;36525;49.398;7.614;2024-03-02T03:37:02;5.30;99.90
50570;DHT22;36525;49.398;7.614;2024-03-02T03:39:29;5.30;99.90
50570;DHT22;36525;49.398;7.614;2024-03-02T03:41:56;5.30;99.90
50570;DHT22;36525;49.398;7.614;2024-03-02T03:44:23;5.40;99.90
50570;DHT22;36525;49.398;7.614;2024-03-02T03:46:50;5.40;99.90
50570;DHT22;36525;49.398;7.614;2024-03-02T03:49:17;5.40;99.90
50570;DHT22;36525;49.398;7.614;2024-03-02T03:51:44;5.40;99.90
50570;DHT22;36525;49.398;7.614;2024-03-02T03:54:10;5.50;99.90
50570;DHT22;36525;49.398;7.614;2024-03-02T03:56:38;5.50;99.90
50570;DHT22;36525;49.398;7.614;2024-03-02T03:59:04;5.60;99.90
50570;DHT22;36525;49.398;7.614;2024-03-02T04:01:31;5.60;99.90
50570;DHT22;36525;49.398;7.614;2024-03-02T04:03:58;5.60;99.90
50570;DHT22;36525;49.398;7.614;2024-03-02T04:06:25;5.60;99.90
50570;DHT22;36525;49.398;7.614;2024-03-02T04:08:52;5.50;99.90
50570;DHT22;36525;49.398;7.614;2024-03-02T04:11:18;5.50;99.90
50570;DHT22;36525;49.398;7.614;2024-03-02T04:13:45;5.60;99.90
50570;DHT22;36525;49.398;7.614;2024-03-02T04:16:12;5.50;99.90
50570;DHT22;36525;49.398;7.614;2024-03-02T04:18:39;5.50;99.90
50570;DHT22;36525;49.398;7.614;2024-03-02T04:21:06;5.70;99.90
50570;DHT22;36525;49.398;7.614;2024-03-02T04:23:33;5.70;99.90
50570;DHT22;36525;49.398;7.614;2024-03-02T04:26:00;5.80;99.90
50570;DHT22;36525;49.398;7.614;2024-03-02T04:28:26;5.80;99.90
50570;DHT22;36525;49.398;7.614;2024-03-02T04:30:53;5.80;99.90
50570;DHT22;36525;49.398;7.614;2024-03-02T04:33:20;5.90;99.90
50570;DHT22;36525;49.398;7.614;2024-03-02T04:35:47;6.00;99.90
50570;DHT22;36525;49.398;7.614;2024-03-02T04:38:14;6.00;99.90
50570;DHT22;36525;49.398;7.614;2024-03-02T04:40:41;5.90;99.90
50570;DHT22;36525;49.398;7.614;2024-03-02T04:43:08;5.90;99.90
50570;DHT22;36525;49.398;7.614;2024-03-02T04:45:37;5.90;99.90
50570;DHT22;36525;49.398;7.614;2024-03-02T04:48:05;5.90;99.90
50570;DHT22;36525;49.398;7.614;2024-03-02T04:50:32;6.00;99.90
50570;DHT22;36525;49.398;7.614;2024-03-02T04:52:59;6.00;99.90
50570;DHT22;36525;49.398;7.614;2024-03-02T04:55:25;6.10;99.90
50570;DHT22;36525;49.398;7.614;2024-03-02T04:57:55;6.10;99.90
50570;DHT22;36525;49.398;7.614;2024-03-02T05:00:22;6.10;99.90
50570;DHT22;36525;49.398;7.614;2024-03-02T05:02:50;6.10;99.90
50570;DHT22;36525;49.398;7.614;2024-03-02T05:05:17;6.10;99.90
50570;DHT22;36525;49.398;7.614;2024-03-02T05:07:44;6.20;99.90
50570;DHT22;36525;49.398;7.614;2024-03-02T05:10:11;6.20;99.90
50570;DHT22;36525;49.398;7.614;2024-03-02T05:12:38;6.30;99.90
50570;DHT22;36525;49.398;7.614;2024-03-02T05:15:11;6.30;99.90
50570;DHT22;36525;49.398;7.614;2024-03-02T05:17:39;6.40;99.90
50570;DHT22;36525;49.398;7.614;2024-03-02T05:20:07;6.50;99.90
50570;DHT22;36525;49.398;7.614;2024-03-02T05:22:37;6.50;99.90
50570;DHT22;36525;49.398;7.614;2024-03-02T05:25:04;6.50;99.90
50570;DHT22;36525;49.398;7.614;2024-03-02T05:27:31;6.60;99.90
50570;DHT22;36525;49.398;7.614;2024-03-02T05:29:59;6.60;99.90
50570;DHT22;36525;49.398;7.614;2024-03-02T05:32:26;6.60;99.90
50570;DHT22;36525;49.398;7.614;2024-03-02T05:34:53;6.60;99.90
50570;DHT22;36525;49.398;7.614;2024-03-02T05:37:20;6.70;99.90
50570;DHT22;36525;49.398;7.614;2024-03-02T05:39:47;6.70;99.90
50570;DHT22;36525;49.398;7.614;2024-03-02T05:42:13;6.70;99.90
50570;DHT22;36525;49.398;7.614;2024-03-02T05:44:41;6.70;99.90
50570;DHT22;36525;49.398;7.614;2024-03-02T05:47:07;6.70;99.90
50570;DHT22;36525;49.398;7.614;2024-03-02T05:49:35;6.80;99.90
50570;DHT22;36525;49.398;7.614;2024-03-02T05:52:02;6.80;99.90
50570;DHT22;36525;49.398;7.614;2024-03-02T05:54:29;6.90;99.90
50570;DHT22;36525;49.398;7.614;2024-03-02T05:56:56;6.80;99.90
50570;DHT22;36525;49.398;7.614;2024-03-02T05:59:23;6.80;99.90
50570;DHT22;36525;49.398;7.614;2024-03-02T06:01:50;6.90;99.90
50570;DHT22;36525;49.398;7.614;2024-03-02T06:04:18;6.90;99.90
50570;DHT22;36525;49.398;7.614;2024-03-02T06:06:45;6.90;99.90
50570;DHT22;36525;49.398;7.614;2024-03-02T06:09:12;6.90;99.90
50570;DHT22;36525;49.398;7.614;2024-03-02T06:11:40;6.90;99.90
50570;DHT22;36525;49.398;7.614;2024-03-02T06:14:07;6.80;99.90
50570;DHT22;36525;49.398;7.614;2024-03-02T06:16:34;6.90;99.90
50570;DHT22;36525;49.398;7.614;2024-03-02T06:19:01;6.90;99.90
50570;DHT22;36525;49.398;7.614;2024-03-02T06:21:29;6.90;99.90
50570;DHT22;36525;49.398;7.614;2024-03-02T06:23:56;6.90;99.90
50570;DHT22;36525;49.398;7.614;2024-03-02T06:26:23;6.90;99.90
50570;DHT22;36525;49.398;7.614;2024-03-02T06:28:51;6.90;99.90
50570;DHT22;36525;49.398;7.614;2024-03-02T06:31:19;7.00;99.90
50570;DHT22;36525;49.398;7.614;2024-03-02T06:33:45;6.90;99.90
50570;DHT22;36525;49.398;7.614;2024-03-02T06:36:12;6.90;99.90
50570;DHT22;36525;49.398;7.614;2024-03-02T06:38:42;6.90;99.90
50570;DHT22;36525;49.398;7.614;2024-03-02T06:41:09;6.90;99.90
50570;DHT22;36525;49.398;7.614;2024-03-02T06:43:36;6.90;99.90
50570;DHT22;36525;49.398;7.614;2024-03-02T06:46:03;6.90;99.90
50570;DHT22;36525;49.398;7.614;2024-03-02T06:48:31;6.90;99.90
50570;DHT22;36525;49.398;7.614;2024-03-02T06:50:58;6.90;99.90
50570;DHT22;36525;49.398;7.614;2024-03-02T06:53:25;6.90;99.90
50570;DHT22;36525;49.398;7.614;2024-03-02T06:55:52;7.00;99.90
50570;DHT22;36525;49.398;7.614;2024-03-02T06:58:18;7.10;99.90
50570;DHT22;36525;49.398;7.614;2024-03-02T07:00:45;7.20;99.90
50570;DHT22;36525;49.398;7.614;2024-03-02T07:03:12;7.20;99.90
50570;DHT22;36525;49.398;7.614;2024-03-02T07:05:40;7.20;99.90
50570;DHT22;36525;49.398;7.614;2024-03-02T07:08:06;7.20;99.90
50570;DHT22;36525;49.398;7.614;2024-03-02T07:10:33;7.20;99.90
50570;DHT22;36525;49.398;7.614;2024-03-02T07:13:00;7.20;99.90
50570;DHT22;36525;49.398;7.614;2024-03-02T07:15:27;7.30;99.90
50570;DHT22;36525;49.398;7.614;2024-03-02T07:17:54;7.50;99.90
50570;DHT22;36525;49.398;7.614;2024-03-02T07:20:21;7.50;99.90
50570;DHT22;36525;49.398;7.614;2024-03-02T07:22:48;7.50;99.90
50570;DHT22;36525;49.398;7.614;2024-03-02T07:25:15;7.60;99.90
50570;DHT22;36525;49.398;7.614;2024-03-02T07:27:45;7.60;99.90
50570;DHT22;36525;49.398;7.614;2024-03-02T07:30:14;7.60;99.90
50570;DHT22;36525;49.398;7.614;2024-03-02T07:32:43;7.70;99.90
50570;DHT22;36525;49.398;7.614;2024-03-02T07:35:13;7.70;99.90
50570;DHT22;36525;49.398;7.614;2024-03-02T07:37:42;7.70;99.90
50570;DHT22;36525;49.398;7.614;2024-03-02T07:40:09;7.80;99.90
50570;DHT22;36525;49.398;7.614;2024-03-02T07:42:40;7.90;99.90
50570;DHT22;36525;49.398;7.614;2024-03-02T07:45:07;8.10;99.90
50570;DHT22;36525;49.398;7.614;2024-03-02T07:47:34;8.20;99.90
50570;DHT22;36525;49.398;7.614;2024-03-02T07:50:01;8.20;99.90
50570;DHT22;36525;49.398;7.614;2024-03-02T07:52:29;8.40;99.90
50570;DHT22;36525;49.398;7.614;2024-03-02T07:54:56;8.60;99.90
50570;DHT22;36525;49.398;7.614;2024-03-02T07:57:23;8.60;99.90
50570;DHT22;36525;49.398;7.614;2024-03-02T07:59:49;8.60;99.90
50570;DHT22;36525;49.398;7.614;2024-03-02T08:02:16;9.10;99.90
50570;DHT22;36525;49.398;7.614;2024-03-02T08:04:43;9.40;99.90
50570;DHT22;36525;49.398;7.614;2024-03-02T08:07:12;9.40;99.90
50570;DHT22;36525;49.398;7.614;2024-03-02T08:09:39;9.20;99.90
50570;DHT22;36525;49.398;7.614;2024-03-02T08:12:06;9.10;99.90
50570;DHT22;36525;49.398;7.614;2024-03-02T08:14:33;9.00;99.90
50570;DHT22;36525;49.398;7.614;2024-03-02T08:17:00;9.00;99.90
50570;DHT22;36525;49.398;7.614;2024-03-02T08:19:28;8.90;99.90
50570;DHT22;36525;49.398;7.614;2024-03-02T08:21:55;8.90;99.90
50570;DHT22;36525;49.398;7.614;2024-03-02T08:24:22;8.90;99.90
50570;DHT22;36525;49.398;7.614;2024-03-02T08:26:49;9.00;99.90
50570;DHT22;36525;49.398;7.614;2024-03-02T08:29:15;9.00;99.90
50570;DHT22;36525;49.398;7.614;2024-03-02T08:31:42;9.00;99.90
50570;DHT22;36525;49.398;7.614;2024-03-02T08:34:09;8.80;99.90
50570;DHT22;36525;49.398;7.614;2024-03-02T08:36:36;8.80;99.90
50570;DHT22;36525;49.398;7.614;2024-03-02T08:39:03;8.80;99.90
50570;DHT22;36525;49.398;7.614;2024-03-02T08:41:34;8.90;99.90
50570;DHT22;36525;49.398;7.614;2024-03-02T08:44:00;9.00;99.90
50570;DHT22;36525;49.398;7.614;2024-03-02T08:46:27;9.20;99.90
50570;DHT22;36525;49.398;7.614;2024-03-02T08:48:55;9.40;99.90
50570;DHT22;36525;49.398;7.614;2024-03-02T08:51:22;9.50;99.90
50570;DHT22;36525;49.398;7.614;2024-03-02T08:53:48;9.60;99.90
50570;DHT22;36525;49.398;7.614;2024-03-02T08:56:15;9.70;99.90
50570;DHT22;36525;49.398;7.614;2024-03-02T08:58:42;9.70;99.90
50570;DHT22;36525;49.398;7.614;2024-03-02T09:01:10;9.80;99.90
50570;DHT22;36525;49.398;7.614;2024-03-02T09:03:37;9.90;99.90
50570;DHT22;36525;49.398;7.614;2024-03-02T09:06:04;9.90;99.90
50570;DHT22;36525;49.398;7.614;2024-03-02T09:08:31;10.00;99.90
50570;DHT22;36525;49.398;7.614;2024-03-02T09:10:58;10.10;99.90
50570;DHT22;36525;49.398;7.614;2024-03-02T09:13:25;10.00;99.90
50570;DHT22;36525;49.398;7.614;2024-03-02T09:15:52;10.00;99.90
50570;DHT22;36525;49.398;7.614;2024-03-02T09:18:19;10.20;99.90
50570;DHT22;36525;49.398;7.614;2024-03-02T09:20:46;10.30;99.90
50570;DHT22;36525;49.398;7.614;2024-03-02T09:23:12;10.30;99.90
50570;DHT22;36525;49.398;7.614;2024-03-02T09:25:39;10.30;99.90
50570;DHT22;36525;49.398;7.614;2024-03-02T09:28:06;10.30;99.90
50570;DHT22;36525;49.398;7.614;2024-03-02T09:30:34;10.30;99.90
50570;DHT22;36525;49.398;7.614;2024-03-02T09:33:00;10.30;99.90
50570;DHT22;36525;49.398;7.614;2024-03-02T09:35:30;10.40;99.90
50570;DHT22;36525;49.398;7.614;2024-03-02T09:37:57;10.40;99.90
50570;DHT22;36525;49.398;7.614;2024-03-02T09:40:24;10.50;99.90
50570;DHT22;36525;49.398;7.614;2024-03-02T09:42:51;10.60;99.90
50570;DHT22;36525;49.398;7.614;2024-03-02T09:45:23;10.70;99.90
50570;DHT22;36525;49.398;7.614;2024-03-02T09:47:50;10.90;99.90
50570;DHT22;36525;49.398;7.614;2024-03-02T09:50:17;10.90;99.90
50570;DHT22;36525;49.398;7.614;2024-03-02T09:52:46;11.10;99.90
50570;DHT22;36525;49.398;7.614;2024-03-02T09:55:15;11.10;99.90
50570;DHT22;36525;49.398;7.614;2024-03-02T09:57:42;11.30;99.90
50570;DHT22;36525;49.398;7.614;2024-03-02T10:00:09;11.50;99.90
50570;DHT22;36525;49.398;7.614;2024-03-02T10:02:42;11.60;99.90
50570;DHT22;36525;49.398;7.614;2024-03-02T10:05:09;11.60;99.90
50570;DHT22;36525;49.398;7.614;2024-03-02T10:07:36;11.60;99.90
50570;DHT22;36525;49.398;7.614;2024-03-02T10:10:12;11.60;99.90
50570;DHT22;36525;49.398;7.614;2024-03-02T10:12:40;11.70;99.90
50570;DHT22;36525;49.398;7.614;2024-03-02T10:15:07;11.70;99.90
50570;DHT22;36525;49.398;7.614;2024-03-02T10:17:36;11.60;99.90
50570;DHT22;36525;49.398;7.614;2024-03-02T10:20:25;11.70;99.90
50570;DHT22;36525;49.398;7.614;2024-03-02T10:22:55;11.70;99.90
50570;DHT22;36525;49.398;7.614;2024-03-02T10:25:32;11.80;99.90
50570;DHT22;36525;49.398;7.614;2024-03-02T10:28:16;11.80;99.90
50570;DHT22;36525;49.398;7.614;2024-03-02T10:30:47;12.10;99.90
50570;DHT22;36525;49.398;7.614;2024-03-02T10:33:14;12.10;99.90
50570;DHT22;36525;49.398;7.614;2024-03-02T10:35:41;12.20;99.90
50570;DHT22;36525;49.398;7.614;2024-03-02T10:38:08;12.20;99.90
50570;DHT22;36525;49.398;7.614;2024-03-02T10:40:37;12.30;99.90
50570;DHT22;36525;49.398;7.614;2024-03-02T10:43:04;12.40;99.90
50570;DHT22;36525;49.398;7.614;2024-03-02T10:45:32;12.30;99.90
50570;DHT22;36525;49.398;7.614;2024-03-02T10:48:00;12.40;99.90
50570;DHT22;36525;49.398;7.614;2024-03-02T10:50:28;12.40;99.90
50570;DHT22;36525;49.398;7.614;2024-03-02T10:52:55;12.50;99.90
50570;DHT22;36525;49.398;7.614;2024-03-02T10:55:22;12.70;99.90
50570;DHT22;36525;49.398;7.614;2024-03-02T10:57:50;12.70;99.90
50570;DHT22;36525;49.398;7.614;2024-03-02T11:00:19;12.70;99.90
50570;DHT22;36525;49.398;7.614;2024-03-02T11:02:52;12.70;99.90
50570;DHT22;36525;49.398;7.614;2024-03-02T11:07:57;12.80;99.90
50570;DHT22;36525;49.398;7.614;2024-03-02T11:10:32;12.70;99.90
50570;DHT22;36525;49.398;7.614;2024-03-02T11:13:02;12.80;99.90
50570;DHT22;36525;49.398;7.614;2024-03-02T11:15:35;12.90;99.90
50570;DHT22;36525;49.398;7.614;2024-03-02T11:18:05;13.00;99.90
50570;DHT22;36525;49.398;7.614;2024-03-02T11:20:36;13.10;99.90
50570;DHT22;36525;49.398;7.614;2024-03-02T11:23:08;13.10;99.90
50570;DHT22;36525;49.398;7.614;2024-03-02T11:25:36;13.10;99.90
50570;DHT22;36525;49.398;7.614;2024-03-02T11:28:03;12.90;99.90
50570;DHT22;36525;49.398;7.614;2024-03-02T11:32:58;13.10;99.90
50570;DHT22;36525;49.398;7.614;2024-03-02T11:35:26;13.30;99.90
50570;DHT22;36525;49.398;7.614;2024-03-02T11:37:55;13.40;99.90
50570;DHT22;36525;49.398;7.614;2024-03-02T11:40:22;13.30;99.90
50570;DHT22;36525;49.398;7.614;2024-03-02T11:42:49;13.20;99.90
50570;DHT22;36525;49.398;7.614;2024-03-02T11:45:16;13.20;99.90
50570;DHT22;36525;49.398;7.614;2024-03-02T11:47:49;13.30;99.90
50570;DHT22;36525;49.398;7.614;2024-03-02T11:52:57;13.60;99.90
50570;DHT22;36525;49.398;7.614;2024-03-02T11:55:27;13.80;99.90
50570;DHT22;36525;49.398;7.614;2024-03-02T11:57:55;14.00;99.90
50570;DHT22;36525;49.398;7.614;2024-03-02T12:00:22;14.00;99.90
50570;DHT22;36525;49.398;7.614;2024-03-02T12:03:08;13.80;99.90
50570;DHT22;36525;49.398;7.614;2024-03-02T12:05:35;13.60;99.90
50570;DHT22;36525;49.398;7.614;2024-03-02T12:08:03;13.50;99.90
50570;DHT22;36525;49.398;7.614;2024-03-02T12:10:31;13.60;99.90
50570;DHT22;36525;49.398;7.614;2024-03-02T12:13:03;13.90;99.90
50570;DHT22;36525;49.398;7.614;2024-03-02T12:15:31;14.10;99.90
50570;DHT22;36525;49.398;7.614;2024-03-02T12:18:01;14.20;99.90
50570;DHT22;36525;49.398;7.614;2024-03-02T12:20:29;14.00;99.90
50570;DHT22;36525;49.398;7.614;2024-03-02T12:23:01;14.00;99.90
50570;DHT22;36525;49.398;7.614;2024-03-02T12:25:29;14.00;99.90
50570;DHT22;36525;49.398;7.614;2024-03-02T12:27:56;13.80;99.90
50570;DHT22;36525;49.398;7.614;2024-03-02T12:30:26;14.00;99.90
50570;DHT22;36525;49.398;7.614;2024-03-02T12:32:53;14.20;99.90
50570;DHT22;36525;49.398;7.614;2024-03-02T12:35:21;14.10;99.90
50570;DHT22;36525;49.398;7.614;2024-03-02T12:37:48;14.20;99.90
50570;DHT22;36525;49.398;7.614;2024-03-02T12:40:16;14.40;99.90
50570;DHT22;36525;49.398;7.614;2024-03-02T12:42:46;14.40;99.90
50570;DHT22;36525;49.398;7.614;2024-03-02T12:45:13;14.30;99.90
50570;DHT22;36525;49.398;7.614;2024-03-02T12:47:40;14.10;99.90
50570;DHT22;36525;49.398;7.614;2024-03-02T12:50:08;13.90;99.90
50570;DHT22;36525;49.398;7.614;2024-03-02T12:52:36;14.00;99.90
50570;DHT22;36525;49.398;7.614;2024-03-02T12:55:04;14.00;99.90
50570;DHT22;36525;49.398;7.614;2024-03-02T12:57:32;13.90;99.90
50570;DHT22;36525;49.398;7.614;2024-03-02T13:00:00;13.90;99.90
50570;DHT22;36525;49.398;7.614;2024-03-02T13:02:28;14.30;99.90
50570;DHT22;36525;49.398;7.614;2024-03-02T13:04:56;14.60;99.90
50570;DHT22;36525;49.398;7.614;2024-03-02T13:07:24;14.90;99.90
50570;DHT22;36525;49.398;7.614;2024-03-02T13:09:52;14.90;99.90
50570;DHT22;36525;49.398;7.614;2024-03-02T13:12:22;14.80;99.90
50570;DHT22;36525;49.398;7.614;2024-03-02T13:14:53;14.80;99.90
50570;DHT22;36525;49.398;7.614;2024-03-02T13:17:20;14.70;99.90
50570;DHT22;36525;49.398;7.614;2024-03-02T13:20:06;14.40;99.90
50570;DHT22;36525;49.398;7.614;2024-03-02T13:22:35;14.40;99.90
50570;DHT22;36525;49.398;7.614;2024-03-02T13:25:02;14.40;99.90
50570;DHT22;36525;49.398;7.614;2024-03-02T13:27:33;14.30;99.90
50570;DHT22;36525;49.398;7.614;2024-03-02T13:30:01;14.30;99.90
50570;DHT22;36525;49.398;7.614;2024-03-02T13:32:29;14.20;99.90
50570;DHT22;36525;49.398;7.614;2024-03-02T13:34:56;14.10;99.90
50570;DHT22;36525;49.398;7.614;2024-03-02T13:37:23;14.00;99.90
50570;DHT22;36525;49.398;7.614;2024-03-02T13:39:50;14.00;99.90
50570;DHT22;36525;49.398;7.614;2024-03-02T13:42:17;14.00;99.90
50570;DHT22;36525;49.398;7.614;2024-03-02T13:44:44;14.10;99.90
50570;DHT22;36525;49.398;7.614;2024-03-02T13:47:16;14.00;99.90
50570;DHT22;36525;49.398;7.614;2024-03-02T13:49:43;14.10;99.90
50570;DHT22;36525;49.398;7.614;2024-03-02T13:52:12;14.10;99.90
50570;DHT22;36525;49.398;7.614;2024-03-02T13:54:44;14.10;99.90
50570;DHT22;36525;49.398;7.614;2024-03-02T13:57:12;14.20;99.90
50570;DHT22;36525;49.398;7.614;2024-03-02T13:59:41;14.20;99.90
50570;DHT22;36525;49.398;7.614;2024-03-02T14:02:08;14.40;99.90
50570;DHT22;36525;49.398;7.614;2024-03-02T14:04:36;14.50;99.90
50570;DHT22;36525;49.398;7.614;2024-03-02T14:07:04;14.40;99.90
50570;DHT22;36525;49.398;7.614;2024-03-02T14:09:35;14.20;99.90
50570;DHT22;36525;49.398;7.614;2024-03-02T14:12:02;14.30;99.90
50570;DHT22;36525;49.398;7.614;2024-03-02T14:14:30;14.50;99.90
50570;DHT22;36525;49.398;7.614;2024-03-02T14:16:57;14.50;99.90
50570;DHT22;36525;49.398;7.614;2024-03-02T14:19:30;14.40;99.90
50570;DHT22;36525;49.398;7.614;2024-03-02T14:21:57;14.30;99.90
50570;DHT22;36525;49.398;7.614;2024-03-02T14:24:24;14.10;99.90
50570;DHT22;36525;49.398;7.614;2024-03-02T14:26:52;14.10;99.90
50570;DHT22;36525;49.398;7.614;2024-03-02T14:29:28;14.10;99.90
50570;DHT22;36525;49.398;7.614;2024-03-02T14:31:55;14.10;99.90
50570;DHT22;36525;49.398;7.614;2024-03-02T14:34:22;14.10;99.90
50570;DHT22;36525;49.398;7.614;2024-03-02T14:36:49;14.20;99.90
50570;DHT22;36525;49.398;7.614;2024-03-02T14:39:16;14.20;99.90
50570;DHT22;36525;49.398;7.614;2024-03-02T14:41:43;14.40;99.90
50570;DHT22;36525;49.398;7.614;2024-03-02T14:44:09;14.40;99.90
50570;DHT22;36525;49.398;7.614;2024-03-02T14:46:36;14.40;99.90
50570;DHT22;36525;49.398;7.614;2024-03-02T14:49:03;14.50;99.90
50570;DHT22;36525;49.398;7.614;2024-03-02T14:51:30;14.60;99.90
50570;DHT22;36525;49.398;7.614;2024-03-02T14:53:57;14.70;99.90
50570;DHT22;36525;49.398;7.614;2024-03-02T14:56:24;14.50;99.90
50570;DHT22;36525;49.398;7.614;2024-03-02T14:58:51;14.60;99.90
50570;DHT22;36525;49.398;7.614;2024-03-02T15:01:17;14.70;99.90
50570;DHT22;36525;49.398;7.614;2024-03-02T15:03:45;14.60;99.90
50570;DHT22;36525;49.398;7.614;2024-03-02T15:06:12;14.40;99.90
50570;DHT22;36525;49.398;7.614;2024-03-02T15:08:38;14.30;99.90
50570;DHT22;36525;49.398;7.614;2024-03-02T15:11:08;14.40;99.90
50570;DHT22;36525;49.398;7.614;2024-03-02T15:13:35;14.60;99.90
50570;DHT22;36525;49.398;7.614;2024-03-02T15:16:02;14.50;99.90
50570;DHT22;36525;49.398;7.614;2024-03-02T15:18:29;14.40;99.90
50570;DHT22;36525;49.398;7.614;2024-03-02T15:20:55;14.50;99.90
50570;DHT22;36525;49.398;7.614;2024-03-02T15:23:22;14.30;99.90
50570;DHT22;36525;49.398;7.614;2024-03-02T15:25:49;14.30;99.90
50570;DHT22;36525;49.398;7.614;2024-03-02T15:28:16;14.20;99.90
50570;DHT22;36525;49.398;7.614;2024-03-02T15:30:43;14.10;99.90
50570;DHT22;36525;49.398;7.614;2024-03-02T15:33:10;13.90;99.90
50570;DHT22;36525;49.398;7.614;2024-03-02T15:35:36;13.80;99.90
50570;DHT22;36525;49.398;7.614;2024-03-02T15:38:03;13.60;99.90
50570;DHT22;36525;49.398;7.614;2024-03-02T15:40:35;13.60;99.90
50570;DHT22;36525;49.398;7.614;2024-03-02T15:43:02;13.50;99.90
50570;DHT22;36525;49.398;7.614;2024-03-02T15:45:28;13.40;99.90
50570;DHT22;36525;49.398;7.614;2024-03-02T15:48:00;13.40;99.90
50570;DHT22;36525;49.398;7.614;2024-03-02T15:50:30;13.40;99.90
50570;DHT22;36525;49.398;7.614;2024-03-02T15:52:59;13.40;99.90
50570;DHT22;36525;49.398;7.614;2024-03-02T15:55:30;13.40;99.90
50570;DHT22;36525;49.398;7.614;2024-03-02T15:57:56;13.40;99.90